Time;durP1;ratioP1;P1;durP2;ratioP2;P2;SDS_P1;SDS_P2;PMS_P1;PMS_P2;Temp;Humidity;BMP_temperature;BMP_pressure;BME280_temperature;BME280_humidity;BME280_pressure;Samples;Min_cycle;Max_cycle;Signal;HPM_P1;HPM_P2
2022/09/26 00:02:05;;;;;;;14.10;11.02;;;;;;;;;;5091536;28;20376;-76
2022/09/26 00:05:10;;;;;;;16.80;10.40;;;;;;;;;;5091315;28;20047;-77
2022/09/26 00:08:14;;;;;;;12.55;9.70;;;;;;;;;;5091563;28;20038;-76
2022/09/26 00:11:23;;;;;;;12.02;9.10;;;;;;;;;;5091181;28;20050;-77
2022/09/26 00:14:28;;;;;;;17.73;10.30;;;;;;;;;;5090410;28;20039;-77
2022/09/26 00:17:33;;;;;;;14.98;9.88;;;;;;;;;;5091997;28;20051;-76
2022/09/26 00:20:40;;;;;;;14.35;10.32;;;;;;;;;;5078556;28;20514;-76
2022/09/26 00:23:45;;;;;;;11.68;10.13;;;;;;;;;;5091208;28;20502;-77
2022/09/26 00:26:50;;;;;;;16.50;11.65;;;;;;;;;;5090998;28;20047;-77
2022/09/26 00:29:54;;;;;;;21.27;11.45;;;;;;;;;;5090344;28;20051;-76
2022/09/26 00:32:58;;;;;;;14.25;10.60;;;;;;;;;;5090407;28;20067;-77
2022/09/26 00:36:03;;;;;;;11.23;9.30;;;;;;;;;;5089735;28;20039;-76
2022/09/26 00:39:08;;;;;;;12.73;10.07;;;;;;;;;;5089794;28;20051;-76
2022/09/26 00:42:14;;;;;;;13.25;10.10;;;;;;;;;;5090960;28;20036;-75
2022/09/26 00:45:19;;;;;;;11.77;10.10;;;;;;;;;;5094516;28;20043;-77
2022/09/26 00:48:23;;;;;;;14.32;10.75;;;;;;;;;;5094451;28;20058;-77
2022/09/26 00:51:28;;;;;;;12.40;10.95;;;;;;;;;;5082651;28;20069;-75
2022/09/26 00:54:34;;;;;;;12.80;11.10;;;;;;;;;;5094152;28;20055;-76
2022/09/26 00:57:41;;;;;;;14.80;9.80;;;;;;;;;;5094095;28;20482;-75
2022/09/26 01:00:47;;;;;;;11.68;9.48;;;;;;;;;;5094131;28;20204;-77
2022/09/26 01:03:52;;;;;;;11.43;8.02;;;;;;;;;;5094012;28;20049;-77
2022/09/26 01:06:57;;;;;;;9.93;7.65;;;;;;;;;;5093942;28;20047;-78
2022/09/26 01:10:03;;;;;;;12.40;7.97;;;;;;;;;;5094713;28;20048;-76
2022/09/26 01:13:08;;;;;;;7.72;6.85;;;;;;;;;;5093615;28;20035;-75
2022/09/26 01:16:13;;;;;;;8.98;6.60;;;;;;;;;;5094391;28;20036;-75
2022/09/26 01:19:42;;;;;;;10.82;7.22;;;;;;;;;;5093634;28;20048;-75
2022/09/26 01:22:49;;;;;;;10.88;7.30;;;;;;;;;;5094237;28;20040;-75
2022/09/26 01:25:57;;;;;;;10.25;7.18;;;;;;;;;;5094079;28;20047;-76
2022/09/26 01:29:16;;;;;;;8.57;5.90;;;;;;;;;;5094085;28;20079;-75
2022/09/26 01:35:57;;;;;;;10.23;5.78;;;;;;;;;;5093897;28;20489;-75
2022/09/26 01:39:20;;;;;;;10.75;6.05;;;;;;;;;;5094074;28;20059;-75
2022/09/26 01:42:28;;;;;;;9.85;6.10;;;;;;;;;;5093250;28;20499;-75
2022/09/26 01:45:46;;;;;;;10.48;6.05;;;;;;;;;;5093608;28;20369;-75
2022/09/26 01:49:05;;;;;;;8.60;5.30;;;;;;;;;;5093078;28;20153;-76
2022/09/26 01:52:13;;;;;;;10.23;5.68;;;;;;;;;;5092978;28;20388;-76
2022/09/26 01:55:40;;;;;;;7.57;4.85;;;;;;;;;;5092016;28;20043;-76
2022/09/26 01:58:47;;;;;;;7.65;4.60;;;;;;;;;;5093083;28;20048;-74
2022/09/26 02:01:55;;;;;;;8.35;5.00;;;;;;;;;;5081094;28;20040;-75
2022/09/26 02:05:12;;;;;;;7.45;4.53;;;;;;;;;;5093655;28;20035;-75
2022/09/26 02:08:19;;;;;;;9.15;4.80;;;;;;;;;;5092745;28;20032;-75
2022/09/26 02:11:24;;;;;;;11.18;4.63;;;;;;;;;;5092796;28;20040;-75
2022/09/26 02:14:34;;;;;;;5.97;4.95;;;;;;;;;;5093208;28;20031;-75
2022/09/26 02:17:42;;;;;;;8.70;4.82;;;;;;;;;;5080800;28;20040;-75
2022/09/26 02:20:57;;;;;;;4.95;4.13;;;;;;;;;;5092924;28;20036;-75
2022/09/26 02:24:02;;;;;;;6.15;4.45;;;;;;;;;;5092278;28;20389;-75
2022/09/26 02:27:06;;;;;;;4.80;4.30;;;;;;;;;;5092305;28;20044;-76
2022/09/26 02:30:11;;;;;;;8.07;4.40;;;;;;;;;;5092276;28;20040;-76
2022/09/26 02:33:16;;;;;;;7.05;4.30;;;;;;;;;;5092414;28;20496;-75
2022/09/26 02:36:21;;;;;;;6.75;3.83;;;;;;;;;;5092136;28;20036;-75
2022/09/26 02:39:25;;;;;;;6.47;4.30;;;;;;;;;;5093007;28;20266;-76
2022/09/26 02:42:53;;;;;;;6.53;4.40;;;;;;;;;;5092225;28;20044;-77
2022/09/26 02:46:18;;;;;;;6.65;4.10;;;;;;;;;;5092748;28;20036;-75
2022/09/26 02:49:49;;;;;;;8.25;4.43;;;;;;;;;;5093931;28;20036;-75
2022/09/26 02:53:07;;;;;;;7.03;4.25;;;;;;;;;;5080261;28;20040;-75
2022/09/26 02:56:51;;;;;;;5.97;4.57;;;;;;;;;;5080161;28;20043;-76
2022/09/26 03:00:04;;;;;;;9.38;4.40;;;;;;;;;;5091665;28;20492;-75
2022/09/26 03:03:18;;;;;;;5.93;3.72;;;;;;;;;;5091605;28;20044;-76
2022/09/26 03:06:27;;;;;;;4.80;4.03;;;;;;;;;;5091575;28;20036;-76
2022/09/26 03:09:32;;;;;;;5.00;3.65;;;;;;;;;;5079884;28;20365;-75
2022/09/26 03:12:37;;;;;;;6.70;3.50;;;;;;;;;;5092517;28;20468;-75
2022/09/26 03:15:44;;;;;;;5.28;3.28;;;;;;;;;;5091292;28;20472;-75
2022/09/26 03:18:54;;;;;;;7.60;3.30;;;;;;;;;;5079859;28;20044;-76
2022/09/26 03:22:01;;;;;;;4.18;3.20;;;;;;;;;;5091620;28;20040;-76
2022/09/26 03:25:07;;;;;;;4.05;3.05;;;;;;;;;;5091092;28;20040;-77
2022/09/26 03:28:15;;;;;;;4.15;2.67;;;;;;;;;;5090962;28;20044;-76
2022/09/26 03:31:21;;;;;;;3.95;3.08;;;;;;;;;;5091244;28;20373;-77
2022/09/26 03:34:51;;;;;;;4.10;2.80;;;;;;;;;;5091795;28;20178;-76
2022/09/26 03:37:55;;;;;;;5.40;3.25;;;;;;;;;;5090816;28;20048;-77
2022/09/26 03:41:01;;;;;;;3.65;2.90;;;;;;;;;;5079196;28;20381;-75
2022/09/26 03:44:24;;;;;;;6.60;3.10;;;;;;;;;;5091587;28;20040;-75
2022/09/26 03:47:58;;;;;;;7.13;2.75;;;;;;;;;;5092447;28;20036;-75
2022/09/26 03:51:03;;;;;;;5.65;2.90;;;;;;;;;;5090848;28;20032;-75
2022/09/26 03:54:08;;;;;;;3.97;2.72;;;;;;;;;;5090574;28;20036;-76
2022/09/26 03:57:13;;;;;;;4.07;2.55;;;;;;;;;;5090625;28;20377;-75
2022/09/26 04:00:23;;;;;;;;;;;;;;;;;;5079211;28;20032;-75
2022/09/26 04:03:28;;;;;;;6.25;3.00;;;;;;;;;;5090892;28;19915;-75
2022/09/26 04:06:34;;;;;;;3.95;2.40;;;;;;;;;;5078912;28;20039;-75
2022/09/26 04:09:39;;;;;;;6.43;2.85;;;;;;;;;;5090538;28;20035;-75
2022/09/26 04:12:44;;;;;;;4.22;2.88;;;;;;;;;;5090783;28;20487;-77
2022/09/26 04:15:54;;;;;;;3.75;3.05;;;;;;;;;;5090363;28;20036;-75
2022/09/26 04:19:02;;;;;;;6.60;3.22;;;;;;;;;;5078731;28;20055;-77
2022/09/26 04:22:09;;;;;;;9.50;3.30;;;;;;;;;;5090195;28;20028;-77
2022/09/26 04:25:14;;;;;;;6.55;3.20;;;;;;;;;;5090191;28;20036;-77
2022/09/26 04:28:18;;;;;;;4.75;3.33;;;;;;;;;;5090919;28;20047;-77
2022/09/26 04:31:26;;;;;;;6.03;3.30;;;;;;;;;;5090131;28;20040;-76
2022/09/26 04:34:39;;;;;;;3.58;3.10;;;;;;;;;;5090093;28;20032;-76
2022/09/26 04:37:44;;;;;;;4.00;2.70;;;;;;;;;;5090123;28;20381;-76
2022/09/26 04:40:48;;;;;;;4.45;3.30;;;;;;;;;;5078477;28;20028;-76
2022/09/26 04:43:53;;;;;;;5.95;3.00;;;;;;;;;;5089879;28;20032;-75
2022/09/26 04:46:58;;;;;;;5.07;2.67;;;;;;;;;;5090227;28;20064;-77
2022/09/26 04:50:15;;;;;;;4.20;2.58;;;;;;;;;;5080212;28;20044;-75
2022/09/26 04:53:34;;;;;;;3.83;2.50;;;;;;;;;;5089751;28;20036;-75
2022/09/26 04:56:45;;;;;;;3.90;2.30;;;;;;;;;;5089553;28;20033;-77
2022/09/26 04:59:49;;;;;;;3.22;2.10;;;;;;;;;;5078306;28;20036;-76
2022/09/26 05:02:54;;;;;;;3.90;2.28;;;;;;;;;;5078205;28;20035;-76
2022/09/26 05:05:58;;;;;;;2.33;1.80;;;;;;;;;;5089777;28;20039;-76
2022/09/26 05:09:03;;;;;;;3.67;1.60;;;;;;;;;;5089778;28;20036;-77
2022/09/26 05:12:19;;;;;;;3.10;1.27;;;;;;;;;;5089575;28;20024;-75
2022/09/26 05:15:27;;;;;;;1.90;1.42;;;;;;;;;;5089913;28;20052;-78
2022/09/26 05:18:32;;;;;;;2.53;1.75;;;;;;;;;;5089446;28;20051;-76
2022/09/26 05:21:37;;;;;;;3.25;2.13;;;;;;;;;;5088641;28;20471;-75
2022/09/26 05:28:21;;;;;;;2.33;1.75;;;;;;;;;;5075248;28;20040;-78
2022/09/26 05:31:27;;;;;;;2.92;1.73;;;;;;;;;;5091965;28;20469;-79
2022/09/26 05:34:31;;;;;;;1.98;1.70;;;;;;;;;;5093390;28;20031;-79
2022/09/26 05:37:36;;;;;;;1.98;1.70;;;;;;;;;;5093390;28;20036;-76
2022/09/26 05:40:55;;;;;;;3.95;1.73;;;;;;;;;;5093369;28;20035;-78
2022/09/26 05:44:00;;;;;;;4.78;1.98;;;;;;;;;;5092768;28;20032;-77
2022/09/26 05:47:06;;;;;;;3.33;2.20;;;;;;;;;;5092978;28;20258;-75
2022/09/26 05:50:10;;;;;;;3.30;2.13;;;;;;;;;;5081419;28;20040;-82
2022/09/26 05:53:16;;;;;;;2.75;2.13;;;;;;;;;;5093288;28;20488;-75
2022/09/26 05:56:22;;;;;;;3.10;2.05;;;;;;;;;;5081369;28;20040;-74
2022/09/26 05:59:35;;;;;;;2.55;2.13;;;;;;;;;;5094033;28;20040;-78
2022/09/26 06:03:00;;;;;;;6.53;2.38;;;;;;;;;;5093829;28;20032;-79
2022/09/26 06:06:17;;;;;;;3.35;2.30;;;;;;;;;;5092355;28;20032;-73
2022/09/26 06:09:23;;;;;;;4.75;2.65;;;;;;;;;;5092753;28;20036;-74
2022/09/26 06:12:47;;;;;;;3.72;2.28;;;;;;;;;;5092877;28;20032;-75
2022/09/26 06:15:53;;;;;;;7.00;2.40;;;;;;;;;;5093749;28;20039;-78
2022/09/26 06:18:58;;;;;;;2.42;2.22;;;;;;;;;;5080794;28;20044;-71
2022/09/26 06:22:03;;;;;;;4.43;2.45;;;;;;;;;;5092814;28;20040;-77
2022/09/26 06:25:10;;;;;;;5.03;2.30;;;;;;;;;;5092534;28;20341;-80
2022/09/26 06:28:15;;;;;;;4.72;2.50;;;;;;;;;;5092612;28;20479;-80
2022/09/26 06:31:20;;;;;;;3.97;2.10;;;;;;;;;;5080947;28;20048;-76
2022/09/26 06:34:53;;;;;;;5.05;2.05;;;;;;;;;;5078529;28;20366;-73
2022/09/26 06:38:18;;;;;;;3.80;2.30;;;;;;;;;;5092817;28;20044;-75
2022/09/26 06:41:25;;;;;;;3.83;2.20;;;;;;;;;;5091805;28;20032;-81
2022/09/26 06:44:29;;;;;;;4.28;2.20;;;;;;;;;;5092769;28;20393;-79
2022/09/26 06:47:52;;;;;;;3.90;2.28;;;;;;;;;;5091803;28;20044;-80
2022/09/26 06:51:22;;;;;;;2.85;2.30;;;;;;;;;;5084503;28;20043;-74
2022/09/26 06:54:26;;;;;;;4.60;1.92;;;;;;;;;;5092575;28;20040;-79
2022/09/26 06:57:43;;;;;;;4.97;2.10;;;;;;;;;;5091994;28;20036;-74
2022/09/26 07:00:49;;;;;;;6.20;2.55;;;;;;;;;;5091803;28;20044;-73
2022/09/26 07:04:04;;;;;;;3.45;2.30;;;;;;;;;;5081750;28;20032;-73
2022/09/26 07:07:11;;;;;;;4.18;2.05;;;;;;;;;;5093122;28;20044;-77
2022/09/26 07:10:20;;;;;;;4.82;2.38;;;;;;;;;;5092439;28;20491;-76
2022/09/26 07:13:35;;;;;;;4.90;2.33;;;;;;;;;;5090508;28;20032;-80
2022/09/26 07:16:40;;;;;;;3.95;3.28;;;;;;;;;;5092444;28;20031;-75
2022/09/26 07:20:18;;;;;;;6.45;3.00;;;;;;;;;;5085508;28;20048;-76
2022/09/26 07:23:55;;;;;;;6.53;3.00;;;;;;;;;;5096081;28;20488;-79
2022/09/26 07:27:00;;;;;;;5.72;2.55;;;;;;;;;;5090968;28;20032;-79
2022/09/26 07:30:05;;;;;;;3.90;2.20;;;;;;;;;;5091241;28;20048;-72
2022/09/26 07:33:11;;;;;;;4.47;2.22;;;;;;;;;;5091971;28;20040;-78
2022/09/26 07:36:22;;;;;;;6.32;2.35;;;;;;;;;;5091187;28;20028;-75
2022/09/26 07:39:26;;;;;;;5.05;2.25;;;;;;;;;;5091469;28;20052;-78
2022/09/26 07:42:31;;;;;;;6.22;2.60;;;;;;;;;;5090637;28;20040;-78
2022/09/26 07:52:51;;;;;;;4.85;1.75;;;;;;;;;;5090632;28;20036;-73
2022/09/26 07:56:11;;;;;;;4.25;2.10;;;;;;;;;;5091076;28;20032;-77
2022/09/26 07:59:37;;;;;;;3.38;1.52;;;;;;;;;;5091132;28;20048;-78
2022/09/26 08:03:03;;;;;;;7.40;1.63;;;;;;;;;;5091682;28;20373;-80
2022/09/26 08:06:09;;;;;;;3.65;1.65;;;;;;;;;;5092627;28;20043;-80
2022/09/26 08:09:14;;;;;;;6.13;1.52;;;;;;;;;;5091651;28;20058;-81
2022/09/26 08:12:38;;;;;;;3.30;1.95;;;;;;;;;;5092354;28;20040;-80
2022/09/26 08:16:04;;;;;;;3.40;2.28;;;;;;;;;;5090526;28;20480;-81
2022/09/26 08:19:16;;;;;;;3.10;1.77;;;;;;;;;;5091199;28;20283;-81
2022/09/26 08:22:20;;;;;;;6.40;2.65;;;;;;;;;;5091442;28;20028;-79
2022/09/26 08:25:28;;;;;;;2.63;1.52;;;;;;;;;;5091154;28;20040;-80
2022/09/26 08:28:38;;;;;;;5.15;1.90;;;;;;;;;;5091290;28;20048;-79
2022/09/26 08:31:44;;;;;;;3.95;1.70;;;;;;;;;;5091619;28;20044;-78
2022/09/26 08:34:51;;;;;;;4.53;1.80;;;;;;;;;;5091083;28;20040;-82
2022/09/26 08:38:05;;;;;;;5.72;1.88;;;;;;;;;;5092019;28;20048;-80
2022/09/26 08:41:15;;;;;;;;;;;;;;;;;;5092504;28;20218;-80
2022/09/26 08:44:58;;;;;;;4.70;2.13;;;;;;;;;;5091446;28;19970;-81
2022/09/26 08:48:33;;;;;;;3.85;2.03;;;;;;;;;;5091152;28;20036;-81
2022/09/26 08:51:50;;;;;;;3.10;1.80;;;;;;;;;;5091661;28;20032;-82
2022/09/26 08:54:59;;;;;;;5.65;2.55;;;;;;;;;;5092447;28;20032;-79
2022/09/26 08:58:09;;;;;;;4.60;2.00;;;;;;;;;;5091386;28;20048;-79
2022/09/26 09:01:19;;;;;;;4.55;2.15;;;;;;;;;;5092425;28;20040;-79
2022/09/26 09:04:45;;;;;;;6.15;2.20;;;;;;;;;;5092092;28;20028;-78
2022/09/26 09:07:51;;;;;;;5.32;2.15;;;;;;;;;;5095706;28;20036;-78
2022/09/26 09:10:57;;;;;;;2.60;1.70;;;;;;;;;;5096132;28;20483;-78
2022/09/26 09:14:19;;;;;;;2.42;1.52;;;;;;;;;;5094727;28;20032;-79
2022/09/26 09:17:41;;;;;;;2.97;1.75;;;;;;;;;;5097005;28;20032;-80
2022/09/26 09:21:23;;;;;;;3.17;1.63;;;;;;;;;;5095586;28;20040;-78
2022/09/26 09:24:48;;;;;;;4.90;1.85;;;;;;;;;;5094713;28;20036;-81
2022/09/26 09:27:59;;;;;;;2.80;1.90;;;;;;;;;;5094230;28;20476;-81
2022/09/26 09:31:05;;;;;;;5.10;2.00;;;;;;;;;;5094486;28;20047;-82
2022/09/26 09:34:26;;;;;;;2.08;1.35;;;;;;;;;;5094097;28;20044;-81
2022/09/26 09:37:51;;;;;;;5.22;1.45;;;;;;;;;;5095281;28;20044;-79
2022/09/26 09:41:20;;;;;;;2.90;1.63;;;;;;;;;;5098328;28;20044;-81
2022/09/26 09:44:34;;;;;;;4.88;1.60;;;;;;;;;;5093599;28;20039;-81
2022/09/26 09:47:39;;;;;;;9.30;1.60;;;;;;;;;;5094603;28;20040;-79
2022/09/26 09:50:56;;;;;;;3.83;1.55;;;;;;;;;;5082322;28;20036;-81
2022/09/26 09:54:03;;;;;;;4.25;1.50;;;;;;;;;;5093593;28;20044;-81
2022/09/26 09:57:27;;;;;;;5.95;2.05;;;;;;;;;;5093267;28;20040;-81
2022/09/26 10:00:33;;;;;;;5.03;2.05;;;;;;;;;;5082127;28;20032;-81
2022/09/26 10:03:57;;;;;;;4.50;2.20;;;;;;;;;;5093724;28;20028;-79
2022/09/26 10:07:04;;;;;;;5.65;2.78;;;;;;;;;;5082673;28;20040;-79
2022/09/26 10:10:18;;;;;;;3.17;1.90;;;;;;;;;;5094192;28;20040;-81
2022/09/26 10:13:53;;;;;;;;;;;;;;;;;;5094571;28;20456;-77
2022/09/26 10:17:30;;;;;;;3.63;1.70;;;;;;;;;;5087465;28;20367;-81
2022/09/26 10:21:17;;;;;;;5.13;1.70;;;;;;;;;;5094218;28;20040;-80
2022/09/26 10:24:26;;;;;;;3.55;1.73;;;;;;;;;;5093990;28;20032;-81
2022/09/26 10:27:39;;;;;;;3.22;1.67;;;;;;;;;;5094079;28;20040;-80
2022/09/26 10:30:48;;;;;;;3.33;1.60;;;;;;;;;;5093857;28;20040;-78
2022/09/26 10:33:59;;;;;;;5.15;1.85;;;;;;;;;;5093608;28;20033;-81
2022/09/26 10:37:23;;;;;;;2.60;1.60;;;;;;;;;;5094177;28;20047;-79
2022/09/26 10:40:47;;;;;;;3.33;1.50;;;;;;;;;;5083315;28;20044;-80
2022/09/26 10:43:54;;;;;;;2.10;1.30;;;;;;;;;;5094045;28;20210;-79
2022/09/26 10:47:19;;;;;;;4.15;1.63;;;;;;;;;;5093953;28;20400;-78
2022/09/26 10:50:36;;;;;;;2.17;1.67;;;;;;;;;;5094951;28;20479;-80
2022/09/26 10:53:50;;;;;;;5.93;1.58;;;;;;;;;;5094728;28;20040;-79
2022/09/26 10:56:58;;;;;;;4.50;1.35;;;;;;;;;;5082814;28;20032;-80
2022/09/26 11:00:05;;;;;;;4.03;1.40;;;;;;;;;;5096801;28;20040;-80
2022/09/26 11:03:11;;;;;;;4.25;1.52;;;;;;;;;;5093245;28;20488;-81
2022/09/26 11:06:45;;;;;;;2.00;1.40;;;;;;;;;;5093500;28;20044;-78
2022/09/26 11:10:17;;;;;;;4.32;1.65;;;;;;;;;;5081833;28;20035;-77
2022/09/26 11:13:46;;;;;;;3.10;1.45;;;;;;;;;;5093320;28;20032;-78
2022/09/26 11:16:52;;;;;;;3.13;1.40;;;;;;;;;;5093227;28;20174;-78
2022/09/26 11:20:01;;;;;;;1.98;1.42;;;;;;;;;;5081354;28;20043;-78
2022/09/26 11:23:26;;;;;;;2.95;1.40;;;;;;;;;;5093247;28;20036;-81
2022/09/26 11:27:05;;;;;;;2.67;1.50;;;;;;;;;;5093130;28;20044;-78
2022/09/26 11:30:12;;;;;;;2.28;1.40;;;;;;;;;;5079791;28;20377;-82
2022/09/26 11:33:22;;;;;;;2.63;1.30;;;;;;;;;;5092821;28;20036;-78
2022/09/26 11:36:52;;;;;;;1.50;0.85;;;;;;;;;;5092527;28;20040;-78
2022/09/26 11:39:57;;;;;;;1.77;1.20;;;;;;;;;;5095093;28;20051;-79
2022/09/26 11:43:01;;;;;;;1.98;1.30;;;;;;;;;;5093068;28;20036;-79
2022/09/26 11:46:35;;;;;;;2.70;1.30;;;;;;;;;;5092369;28;20491;-79
2022/09/26 11:50:01;;;;;;;2.65;1.10;;;;;;;;;;5093307;28;20028;-80
2022/09/26 11:53:29;;;;;;;3.33;1.40;;;;;;;;;;5094010;28;20036;-80
2022/09/26 11:56:43;;;;;;;2.55;1.05;;;;;;;;;;5092752;28;20040;-80
2022/09/26 12:00:01;;;;;;;0.68;0.63;;;;;;;;;;5080189;28;20043;-81
2022/09/26 12:03:05;;;;;;;1.00;0.90;;;;;;;;;;5092912;28;20031;-80
2022/09/26 12:06:21;;;;;;;2.80;0.70;;;;;;;;;;5093552;28;20048;-78
2022/09/26 12:09:31;;;;;;;0.85;0.63;;;;;;;;;;5092183;28;20392;-79
2022/09/26 12:12:42;;;;;;;0.75;0.65;;;;;;;;;;5092558;28;20040;-79
2022/09/26 12:15:53;;;;;;;;;;;;;;;;;;5093275;28;20476;-77
2022/09/26 12:19:04;;;;;;;1.95;0.75;;;;;;;;;;5092537;28;19923;-79
2022/09/26 12:22:28;;;;;;;1.10;0.83;;;;;;;;;;5092319;28;20028;-79
2022/09/26 12:25:34;;;;;;;1.33;1.00;;;;;;;;;;5093128;28;20036;-78
2022/09/26 12:28:42;;;;;;;1.67;0.80;;;;;;;;;;5092907;28;20488;-76
2022/09/26 12:31:56;;;;;;;2.33;0.88;;;;;;;;;;5091765;28;20036;-80
2022/09/26 12:35:26;;;;;;;1.73;0.80;;;;;;;;;;5092394;28;20480;-80
2022/09/26 12:38:39;;;;;;;1.63;0.90;;;;;;;;;;5094224;28;20052;-80
2022/09/26 12:41:46;;;;;;;1.58;0.80;;;;;;;;;;5099923;28;20761;-81
2022/09/26 12:45:05;;;;;;;2.80;1.00;;;;;;;;;;5099699;28;20040;-79
2022/09/26 12:48:19;;;;;;;1.20;0.70;;;;;;;;;;5100909;28;20044;-79
2022/09/26 12:51:38;;;;;;;1.33;0.90;;;;;;;;;;5099349;28;20032;-80
2022/09/26 12:55:01;;;;;;;3.03;1.00;;;;;;;;;;5100226;28;20044;-80
2022/09/26 12:58:25;;;;;;;2.47;1.30;;;;;;;;;;5100978;28;20044;-79
2022/09/26 13:01:42;;;;;;;1.02;0.93;;;;;;;;;;5100577;28;20376;-78
2022/09/26 13:04:59;;;;;;;1.75;1.17;;;;;;;;;;5099854;28;20182;-80
2022/09/26 13:08:23;;;;;;;3.03;1.02;;;;;;;;;;5099457;28;20503;-78
2022/09/26 13:11:37;;;;;;;3.33;1.40;;;;;;;;;;5100135;28;20035;-79
2022/09/26 13:14:56;;;;;;;2.35;1.40;;;;;;;;;;5099750;28;20290;-79
2022/09/26 13:18:07;;;;;;;2.13;1.52;;;;;;;;;;5099651;28;20357;-80
2022/09/26 13:21:23;;;;;;;2.78;1.40;;;;;;;;;;5098954;28;20044;-79
2022/09/26 13:24:45;;;;;;;3.55;1.60;;;;;;;;;;5099443;28;20391;-79
2022/09/26 13:27:53;;;;;;;3.42;1.40;;;;;;;;;;5098733;28;20048;-79
2022/09/26 13:31:13;;;;;;;2.30;1.35;;;;;;;;;;5098608;28;20480;-80
2022/09/26 13:34:39;;;;;;;2.05;1.50;;;;;;;;;;5096839;28;20040;-81
2022/09/26 13:37:52;;;;;;;1.40;1.30;;;;;;;;;;5098325;28;20476;-83
2022/09/26 13:41:05;;;;;;;2.25;1.80;;;;;;;;;;5098241;28;20040;-81
2022/09/26 13:44:21;;;;;;;4.78;1.80;;;;;;;;;;5097306;28;20415;-82
2022/09/26 13:47:26;;;;;;;3.92;1.50;;;;;;;;;;5097671;28;20052;-82
2022/09/26 13:50:40;;;;;;;3.85;1.38;;;;;;;;;;5097848;28;20040;-79
2022/09/26 13:53:52;;;;;;;4.72;1.88;;;;;;;;;;5094879;28;20040;-81
2022/09/26 13:56:57;;;;;;;4.05;1.83;;;;;;;;;;5082021;28;20032;-79
2022/09/26 14:00:05;;;;;;;3.35;2.22;;;;;;;;;;5082253;28;20052;-79
2022/09/26 14:03:12;;;;;;;2.10;1.70;;;;;;;;;;5094208;28;20036;-81
2022/09/26 14:06:18;;;;;;;5.15;2.08;;;;;;;;;;5093987;28;20036;-81
2022/09/26 14:09:39;;;;;;;3.13;1.90;;;;;;;;;;5094479;28;20032;-79
2022/09/26 14:12:51;;;;;;;2.33;1.63;;;;;;;;;;5093775;28;20036;-82
2022/09/26 14:15:58;;;;;;;3.17;1.90;;;;;;;;;;5093705;28;20032;-83
2022/09/26 14:19:05;;;;;;;3.03;1.63;;;;;;;;;;5094519;28;20051;-84
2022/09/26 14:22:21;;;;;;;3.72;1.60;;;;;;;;;;5094303;28;20039;-81
2022/09/26 14:25:44;;;;;;;3.63;1.73;;;;;;;;;;5095131;28;20036;-85
2022/09/26 14:28:52;;;;;;;3.20;1.70;;;;;;;;;;5093356;28;20040;-81
2022/09/26 14:32:00;;;;;;;2.33;1.55;;;;;;;;;;5093212;28;20036;-81
2022/09/26 14:35:24;;;;;;;2.38;1.25;;;;;;;;;;5093367;28;20036;-81
2022/09/26 14:38:29;;;;;;;1.90;1.40;;;;;;;;;;5093528;28;20039;-82
2022/09/26 14:41:35;;;;;;;2.90;1.50;;;;;;;;;;5093643;28;20355;-82
2022/09/26 14:44:45;;;;;;;1.70;1.55;;;;;;;;;;5093521;28;20388;-81
2022/09/26 14:47:53;;;;;;;1.80;1.55;;;;;;;;;;5092554;28;20534;-82
2022/09/26 14:51:04;;;;;;;1.40;0.95;;;;;;;;;;5093290;28;20040;-82
2022/09/26 14:54:22;;;;;;;0.98;0.88;;;;;;;;;;5093296;28;20036;-82
2022/09/26 14:57:29;;;;;;;1.60;1.20;;;;;;;;;;5093408;28;20032;-81
2022/09/26 15:00:35;;;;;;;2.03;1.10;;;;;;;;;;5093516;28;20052;-81
2022/09/26 15:03:40;;;;;;;1.85;1.25;;;;;;;;;;5092848;28;20040;-81
2022/09/26 15:06:51;;;;;;;2.72;1.20;;;;;;;;;;5092827;28;20043;-82
2022/09/26 15:10:01;;;;;;;1.10;0.90;;;;;;;;;;5080633;28;20032;-81
2022/09/26 15:13:14;;;;;;;2.05;1.27;;;;;;;;;;5092092;28;20201;-82
2022/09/26 15:16:28;;;;;;;1.30;0.98;;;;;;;;;;5092428;28;20292;-81
2022/09/26 15:19:35;;;;;;;1.77;1.17;;;;;;;;;;5079591;28;20048;-82
2022/09/26 15:22:41;;;;;;;1.75;1.00;;;;;;;;;;5092263;28;20040;-82
2022/09/26 15:25:45;;;;;;;1.92;1.30;;;;;;;;;;5092247;28;20036;-81
2022/09/26 15:28:51;;;;;;;2.42;1.23;;;;;;;;;;5092173;28;20048;-81
2022/09/26 15:31:56;;;;;;;2.00;0.98;;;;;;;;;;5093147;28;20044;-80
2022/09/26 15:35:02;;;;;;;2.72;1.45;;;;;;;;;;5093590;28;20266;-80
2022/09/26 15:38:11;;;;;;;3.80;1.33;;;;;;;;;;5094095;28;20040;-80
2022/09/26 15:42:56;;;;;;;3.38;1.55;;;;;;;;;;5093828;28;20040;-80
2022/09/26 15:45:02;;;;;;;3.70;1.40;;;;;;;;;;5093225;28;20032;-80
2022/09/26 15:48:18;;;;;;;6.20;2.38;;;;;;;;;;5092815;28;20043;-81
2022/09/26 15:51:38;;;;;;;3.28;1.50;;;;;;;;;;5091707;28;20044;-79
2022/09/26 15:54:42;;;;;;;5.90;2.50;;;;;;;;;;5091303;28;20040;-79
2022/09/26 15:57:48;;;;;;;5.43;1.83;;;;;;;;;;5091650;28;20509;-80
2022/09/26 16:00:52;;;;;;;1.52;1.42;;;;;;;;;;5091361;28;20044;-79
2022/09/26 16:04:16;;;;;;;3.10;1.60;;;;;;;;;;5091123;28;20036;-79
2022/09/26 16:07:23;;;;;;;3.75;1.55;;;;;;;;;;5091729;28;20369;-80
2022/09/26 16:10:29;;;;;;;3.05;1.80;;;;;;;;;;5091353;28;20036;-79
2022/09/26 16:13:45;;;;;;;3.00;1.90;;;;;;;;;;5090450;28;20031;-80
2022/09/26 16:16:49;;;;;;;1.95;1.60;;;;;;;;;;5092694;28;20044;-80
2022/09/26 16:19:58;;;;;;;5.65;2.10;;;;;;;;;;5090781;28;20056;-81
2022/09/26 16:23:03;;;;;;;5.03;1.92;;;;;;;;;;5090958;28;20040;-81
2022/09/26 16:26:19;;;;;;;6.80;2.50;;;;;;;;;;5091075;28;20035;-80
2022/09/26 16:29:32;;;;;;;4.13;2.58;;;;;;;;;;5090496;28;20044;-80
2022/09/26 16:32:37;;;;;;;3.97;2.05;;;;;;;;;;5090494;28;20040;-80
2022/09/26 16:35:45;;;;;;;5.70;2.72;;;;;;;;;;5091002;28;20528;-82
2022/09/26 16:38:54;;;;;;;5.30;2.30;;;;;;;;;;5091074;28;20051;-80
2022/09/26 16:42:06;;;;;;;6.47;2.58;;;;;;;;;;5091172;28;20036;-80
2022/09/26 16:45:13;;;;;;;5.10;2.38;;;;;;;;;;5090904;28;20048;-79
2022/09/26 16:48:37;;;;;;;4.40;2.58;;;;;;;;;;5090137;28;20040;-79
2022/09/26 16:52:01;;;;;;;5.00;3.50;;;;;;;;;;5090293;28;20231;-81
2022/09/26 16:55:06;;;;;;;7.43;3.83;;;;;;;;;;5091151;28;20048;-80
2022/09/26 16:58:12;;;;;;;6.10;3.58;;;;;;;;;;5078303;28;20032;-80
2022/09/26 17:04:40;;;;;;;5.45;3.40;;;;;;;;;;5091045;28;20036;-79
2022/09/26 17:07:46;;;;;;;25.73;16.48;;;;;;;;;;5089789;28;20036;-80
2022/09/26 17:10:50;;;;;;;14.77;6.65;;;;;;;;;;5091103;28;20055;-79
2022/09/26 17:13:54;;;;;;;7.88;5.10;;;;;;;;;;5078358;28;20372;-80
2022/09/26 17:16:59;;;;;;;12.85;4.78;;;;;;;;;;5090237;28;20032;-79
2022/09/26 17:20:04;;;;;;;11.77;7.03;;;;;;;;;;5088234;28;20419;-79
2022/09/26 17:23:10;;;;;;;15.43;6.88;;;;;;;;;;5090815;28;20047;-80
2022/09/26 17:26:18;;;;;;;19.90;7.72;;;;;;;;;;5091243;28;20051;-80
2022/09/26 17:29:34;;;;;;;14.38;5.93;;;;;;;;;;5093915;28;20070;-79
2022/09/26 17:32:39;;;;;;;10.27;5.97;;;;;;;;;;5094155;28;20451;-73
2022/09/26 17:35:43;;;;;;;18.50;6.45;;;;;;;;;;5094335;28;20052;-72
2022/09/26 17:38:48;;;;;;;12.73;5.50;;;;;;;;;;5093387;28;20059;-72
2022/09/26 17:41:53;;;;;;;10.32;4.80;;;;;;;;;;5093455;28;20040;-72
2022/09/26 17:44:59;;;;;;;8.23;4.15;;;;;;;;;;5094479;28;20412;-72
2022/09/26 17:48:15;;;;;;;16.88;4.43;;;;;;;;;;5094671;28;20040;-74
2022/09/26 17:51:20;;;;;;;17.27;6.03;;;;;;;;;;5093397;28;20510;-76
2022/09/26 17:54:29;;;;;;;15.55;6.20;;;;;;;;;;5093141;28;20418;-75
2022/09/26 17:57:33;;;;;;;12.73;6.20;;;;;;;;;;5070299;28;20444;-75
2022/09/26 18:00:39;;;;;;;20.05;6.57;;;;;;;;;;5092913;28;20570;-75
2022/09/26 18:03:43;;;;;;;23.88;6.72;;;;;;;;;;5093855;28;20523;-75
2022/09/26 18:06:48;;;;;;;13.63;4.93;;;;;;;;;;5093058;28;20051;-75
2022/09/26 18:09:52;;;;;;;10.93;4.45;;;;;;;;;;5093611;28;20039;-75
2022/09/26 18:12:58;;;;;;;26.95;8.77;;;;;;;;;;5092647;28;20047;-75
2022/09/26 18:16:04;;;;;;;15.93;7.47;;;;;;;;;;5092864;28;20492;-76
2022/09/26 18:19:09;;;;;;;15.27;7.10;;;;;;;;;;5092444;28;20400;-75
2022/09/26 18:22:15;;;;;;;13.80;7.95;;;;;;;;;;5092124;28;20047;-75
2022/09/26 18:25:21;;;;;;;21.67;8.43;;;;;;;;;;5092267;28;20047;-75
2022/09/26 18:28:25;;;;;;;24.55;7.93;;;;;;;;;;5092544;28;20055;-76
2022/09/26 18:31:31;;;;;;;25.02;8.05;;;;;;;;;;5093039;28;20059;-75
2022/09/26 18:34:35;;;;;;;19.73;7.35;;;;;;;;;;5093300;28;20106;-75
2022/09/26 18:37:39;;;;;;;14.75;6.13;;;;;;;;;;5091662;28;20039;-76
2022/09/26 18:40:49;;;;;;;10.52;5.57;;;;;;;;;;5093017;28;20059;-75
2022/09/26 18:43:54;;;;;;;12.20;6.28;;;;;;;;;;5091773;28;20043;-75
2022/09/26 18:46:59;;;;;;;16.55;6.20;;;;;;;;;;5092769;28;20043;-76
2022/09/26 18:50:04;;;;;;;12.98;6.80;;;;;;;;;;5092245;28;20047;-76
2022/09/26 18:53:17;;;;;;;16.63;6.20;;;;;;;;;;5091789;28;20043;-76
2022/09/26 18:59:44;;;;;;;7.32;4.90;;;;;;;;;;5092540;28;20043;-76
2022/09/26 19:02:49;;;;;;;10.40;4.68;;;;;;;;;;5092653;28;20028;-76
2022/09/26 19:05:56;;;;;;;17.38;6.63;;;;;;;;;;5091994;28;20047;-76
2022/09/26 19:09:05;;;;;;;10.00;6.18;;;;;;;;;;5092482;28;20043;-76
2022/09/26 19:12:12;;;;;;;8.38;5.38;;;;;;;;;;5092850;28;20503;-76
2022/09/26 19:15:16;;;;;;;11.77;6.15;;;;;;;;;;5092456;28;20044;-75
2022/09/26 19:18:20;;;;;;;6.55;5.57;;;;;;;;;;5091486;28;20043;-75
2022/09/26 19:21:28;;;;;;;9.63;5.72;;;;;;;;;;5092101;28;20044;-76
2022/09/26 19:24:39;;;;;;;11.77;6.03;;;;;;;;;;5092549;28;20043;-76
2022/09/26 19:27:48;;;;;;;9.30;6.18;;;;;;;;;;5079434;28;20434;-75